Twin Oaks (599, 859) Station Data

Red Flag Warning: No
Fire Weather Zone: 250
SDGE Region: North East
Lat/Lon: 33.194/-117.153

Observations

Time Wind Speed/Gust Temp(F) RH Fuel Moist Fuel Temp(F) Dewpt(F) Tmax(F) Tmin(F) Accum Precip 10-min Precip SL Press(mb)
4/26 2:40am 17 2 G 3 50° 86% - - 46° 52.1° 49.4° - - -
4/26 2:30am 319 2 G 3 50° 86% - - 46° 52.1° 49.4° - - -
4/26 2:20am 23 3 G 5 50° 85% - - 45° 52.1° 49.4° - - -
4/26 2:10am 328 2 G 3 51° 85% - - 46° 52.1° 49.9° - - -
4/26 2:00am 336 2 G 4 51° 86% - - 47° 52.1° 49.9° - - -
4/26 1:50am 342 2 G 4 51° 84% - - 46° 52.1° 49.9° - - -
4/26 1:40am 32 1 G 2 51° 84% - - 46° 52.1° 49.9° - - -
4/26 1:30am 321 1 G 3 51° 86% - - 46° 52.1° 49.9° - - -
4/26 1:20am 319 2 G 4 50° 85% - - 46° 52.1° 49.9° - - -
4/26 1:10am 348 2 G 4 51° 84% - - 46° 52.1° 50° - - -
4/26 1:00am 356 2 G 3 51° 83% - - 46° 52.1° 50.2° - - -
4/26 12:50am 8 1 G 3 51° 83% - - 46° 52.1° 50.4° - - -
4/26 12:40am 326 2 G 3 51° 84% - - 46° 52.1° 50.4° - - -
4/26 12:30am 347 1 G 2 51° 83% - - 46° 52.1° 50.5° - - -
4/26 12:20am 10 2 G 2 51° 82% - - 46° 52.1° 50.7° - - -
4/26 12:10am 333 1 G 1 52° 81% - - 46° 52.1° 51.2° - - -
4/26 12:00am 355 2 G 3 53° 81% - - 47° 67.1° 51.6° - - -
4/25 11:50pm 319 1 G 4 53° 80% - - 47° 67.1° 51.6° - - -
4/25 11:40pm 347 2 G 4 53° 81% - - 47° 67.1° 51.6° - - -
4/25 11:30pm 332 2 G 4 52° 81% - - 47° 67.1° 51.6° - - -
4/25 11:20pm 360 2 G 3 52° 80% - - 46° 67.1° 51.7° - - -
4/25 11:10pm 18 2 G 3 52° 80% - - 46° 67.1° 52° - - -
4/25 11:00pm 21 1 G 3 53° 80% - - 47° 67.1° 52.2° - - -
4/25 10:50pm 352 1 G 2 52° 79% - - 46° 67.1° 52.2° - - -
4/25 10:40pm 332 1 G 2 53° 80% - - 47° 67.1° 52.7° - - -
4/25 10:30pm 3 2 G 3 54° 78% - - 47° 67.1° 52.9° - - -
4/25 10:20pm 344 2 G 3 54° 78% - - 47° 67.1° 53.4° - - -
4/25 10:10pm 332 2 G 3 54° 77% - - 47° 67.1° 53.7° - - -
4/25 10:00pm 2 2 G 4 54° 76% - - 47° 67.1° 53.7° - - -
4/25 9:50pm 1 2 G 3 54° 76% - - 47° 67.1° 53.8° - - -
4/25 9:40pm 359 2 G 3 55° 75% - - 47° 67.1° 54.1° - - -
4/25 9:30pm 349 2 G 3 55° 74% - - 47° 67.1° 54.8° - - -
4/25 9:20pm 12 2 G 4 55° 73% - - 47° 67.1° 54.8° - - -
4/25 9:10pm 11 2 G 3 55° 73% - - 47° 67.1° 55.1° - - -
4/25 9:00pm 13 2 G 3 55° 72% - - 47° 67.1° 55.1° - - -
4/25 8:50pm 358 1 G 2 56° 70% - - 46° 67.1° 55.7° - - -
4/25 8:40pm 20 2 G 3 57° 68% - - 46° 67.1° 56.1° - - -
4/25 8:30pm 3 1 G 2 58° 66% - - 46° 67.1° 56.2° - - -
4/25 8:20pm 85 2 G 3 58° 66% - - 47° 67.1° 56.2° - - -
4/25 8:10pm 29 1 G 2 58° 67% - - 47° 67.1° 56.2° - - -
4/25 8:00pm 341 1 G 2 59° 65% - - 47° 67.1° 56.2° - - -
4/25 7:50pm 283 1 G 2 59° 63% - - 47° 67.1° 56.2° - - -
4/25 7:40pm 227 1 G 2 60° 61% - - 46° 67.1° 56.2° - - -
4/25 7:30pm 223 1 G 2 61° 58% - - 46° 67.1° 56.2° - - -
4/25 7:20pm 235 2 G 4 61° 56% - - 45° 67.1° 56.2° - - -
4/25 7:10pm 251 2 G 5 61° 53% - - 44° 67.1° 56.2° - - -
4/25 7:00pm 251 1 G 3 62° 51% - - 44° 67.1° 56.2° - - -
4/25 6:50pm 255 3 G 6 62° 51% - - 44° 67.1° 56.2° - - -
4/25 6:40pm 241 3 G 6 63° 49% - - 44° 67.1° 56.2° - - -
4/25 6:30pm 274 3 G 7 63° 46% - - 42° 67.1° 56.2° - - -
4/25 6:20pm 269 4 G 8 63° 47% - - 43° 67.1° 56.2° - - -
4/25 6:10pm 245 4 G 8 63° 47% - - 43° 67.1° 56.2° - - -
4/25 6:00pm 257 5 G 10 63° 48% - - 43° 67.1° 56.2° - - -
4/25 5:50pm 263 5 G 10 63° 46% - - 42° 67.1° 56.2° - - -
4/25 5:40pm 248 5 G 9 63° 48% - - 44° 67.1° 56.2° - - -
4/25 5:30pm 259 6 G 10 64° 51% - - 45° 67.1° 56.2° - - -
4/25 5:20pm 275 6 G 13 65° 52% - - 47° 67.1° 56.2° - - -
4/25 5:10pm 282 7 G 12 65° 55% - - 48° 67.1° 56.2° - - -
4/25 5:00pm 242 5 G 13 65° 57% - - 49° 67.1° 56.2° - - -
4/25 4:50pm 254 6 G 12 65° 57% - - 50° 67.1° 56.2° - - -
4/25 4:40pm 250 5 G 11 65° 58% - - 50° 67.1° 56.2° - - -
4/25 4:30pm 279 4 G 9 65° 59% - - 50° 67.1° 56.2° - - -
4/25 4:20pm 265 7 G 12 65° 58% - - 50° 67.1° 56.2° - - -
4/25 4:10pm 247 6 G 11 65° 59% - - 51° 67.1° 56.2° - - -
4/25 4:00pm 259 6 G 11 65° 59% - - 50° 67.1° 56.2° - - -
4/25 3:50pm 288 7 G 13 65° 56% - - 49° 67.1° 56.2° - - -
4/25 3:40pm 273 5 G 11 66° 55% - - 49° 67.1° 56.2° - - -
4/25 3:30pm 267 7 G 14 65° 58% - - 50° 67.1° 56.2° - - -
4/25 3:20pm 249 6 G 13 65° 57% - - 50° 67.1° 56.2° - - -
4/25 3:10pm 268 7 G 13 65° 57% - - 50° 67.1° 56.2° - - -
4/25 3:00pm 254 7 G 13 65° 56% - - 49° 67.1° 56.2° - - -
4/25 2:50pm 247 6 G 14 65° 55% - - 49° 67.1° 56.2° - - -
4/25 2:40pm 256 6 G 11 65° 54% - - 48° 67.1° 56.2° - - -
4/25 2:30pm 253 6 G 10 65° 54% - - 48° 67.1° 56.2° - - -
4/25 2:20pm 250 5 G 10 66° 54% - - 48° 67.1° 56.2° - - -
4/25 2:10pm 276 6 G 11 65° 54% - - 49° 67.1° 56.2° - - -
4/25 2:00pm 276 6 G 11 66° 54% - - 49° 67.1° 56.2° - - -
4/25 1:50pm 262 6 G 10 65° 55% - - 49° 67.1° 56.2° - - -
4/25 1:40pm 275 6 G 10 65° 56% - - 49° 67.1° 56.2° - - -
4/25 1:30pm 264 7 G 12 66° 54% - - 49° 67.1° 56.2° - - -
4/25 1:20pm 259 6 G 11 67° 53% - - 49° 67.1° 56.2° - - -
4/25 1:10pm 233 7 G 12 66° 55% - - 49° 67.1° 56.2° - - -
4/25 1:00pm 262 6 G 12 66° 56% - - 49° 67.1° 56.2° - - -
4/25 12:50pm 274 7 G 13 65° 56% - - 49° 65.7° 56.2° - - -
4/25 12:40pm 273 5 G 9 65° 55% - - 49° 65.7° 56.2° - - -
4/25 12:30pm 258 5 G 11 65° 58% - - 50° 65.6° 56.2° - - -
4/25 12:20pm 241 6 G 13 65° 58% - - 50° 65.5° 56.2° - - -
4/25 12:10pm 258 4 G 9 65° 59% - - 50° 65.3° 56.2° - - -
4/25 12:00pm 241 6 G 11 64° 62% - - 50° 65.3° 56.2° - - -
4/25 11:50am 265 6 G 11 64° 61% - - 50° 65.3° 56.2° - - -
4/25 11:40am 262 4 G 9 65° 61% - - 51° 65.3° 56.2° - - -
4/25 11:30am 230 6 G 10 64° 62% - - 51° 64.9° 56.2° - - -
4/25 11:20am 270 4 G 10 64° 63% - - 51° 64.9° 56.2° - - -
4/25 11:10am 278 7 G 13 63° 65% - - 51° 64.9° 56.2° - - -
4/25 11:00am 241 4 G 9 63° 65% - - 51° 64.9° 56.2° - - -
4/25 10:50am 222 6 G 10 63° 64% - - 51° 64.9° 56.2° - - -
4/25 10:40am 218 4 G 8 64° 61% - - 50° 64.9° 56.2° - - -
4/25 10:30am 229 5 G 11 64° 63% - - 51° 64.1° 56.2° - - -
4/25 10:20am 208 6 G 11 63° 66% - - 51° 63.9° 56.2° - - -
4/25 10:10am 226 7 G 12 63° 67% - - 52° 63.3° 56.2° - - -
4/25 10:00am 209 4 G 8 63° 61% - - 49° 63.3° 56.2° - - -
4/25 9:50am 182 3 G 8 62° 62% - - 49° 62.7° 56.2° - - -
4/25 9:40am 211 4 G 7 62° 64% - - 50° 62.7° 56.2° - - -
4/25 9:30am 175 4 G 7 61° 68% - - 50° 62.1° 56.2° - - -
4/25 9:20am 171 4 G 7 60° 71% - - 51° 61° 56.2° - - -
4/25 9:10am 181 4 G 7 60° 71% - - 51° 61° 56.2° - - -
4/25 9:00am 156 5 G 9 60° 72% - - 51° 60.8° 56.2° - - -
4/25 8:50am 165 3 G 7 60° 75% - - 52° 60.7° 56.2° - - -
4/25 8:40am 179 4 G 7 59° 77% - - 52° 59.2° 56.2° - - -
4/25 8:30am 181 4 G 7 59° 77% - - 52° 58.9° 56.2° - - -
4/25 8:20am 184 4 G 7 59° 78% - - 52° 58.9° 56.2° - - -
4/25 8:10am 180 4 G 6 59° 78% - - 52° 58.8° 56.2° - - -
4/25 8:00am 163 4 G 7 58° 79% - - 52° 58.6° 56.2° - - -
4/25 7:50am 153 4 G 6 58° 80% - - 52° 58.1° 56.2° - - -
4/25 7:40am 171 5 G 7 58° 80% - - 52° 57.8° 56.2° - - -
4/25 7:30am 154 4 G 7 57° 81% - - 52° 57.8° 56.2° - - -
4/25 7:20am 144 4 G 7 57° 81% - - 52° 57.8° 56.2° - - -
4/25 7:10am 143 4 G 6 57° 82% - - 52° 57.8° 56.2° - - -
4/25 7:00am 156 4 G 8 57° 82% - - 51° 57.8° 56.2° - - -
4/25 6:50am 171 2 G 5 57° 82% - - 51° 57.8° 56.2° - - -
4/25 6:40am 166 3 G 9 57° 81% - - 51° 57.8° 56.2° - - -
4/25 6:30am 153 4 G 6 57° 80% - - 51° 57.8° 56.2° - - -
4/25 6:20am 152 3 G 4 57° 80% - - 51° 57.8° 56.2° - - -
4/25 6:10am 144 2 G 4 57° 80% - - 51° 57.8° 56.2° - - -
4/25 6:00am 146 3 G 5 57° 80% - - 51° 57.8° 56.2° - - -
4/25 5:50am 150 4 G 5 57° 80% - - 51° 57.8° 56.2° - - -
4/25 5:40am 146 3 G 5 57° 80% - - 51° 57.8° 56.2° - - -
4/25 5:30am 146 3 G 4 57° 79% - - 50° 57.8° 56.2° - - -
4/25 5:20am 136 3 G 5 57° 79% - - 50° 57.8° 56.2° - - -
4/25 5:10am 138 3 G 7 57° 80% - - 50° 57.8° 56.2° - - -
4/25 5:00am 154 4 G 6 57° 80% - - 50° 57.8° 56.2° - - -
4/25 4:50am 164 3 G 6 56° 80% - - 50° 57.8° 56.2° - - -
4/25 4:40am 158 4 G 7 56° 80% - - 50° 57.8° 56.2° - - -
4/25 4:30am 148 3 G 6 56° 80% - - 50° 57.8° 56.2° - - -
4/25 4:20am 148 3 G 6 56° 80% - - 50° 57.8° 56.2° - - -
4/25 4:10am 146 4 G 6 56° 79% - - 50° 57.8° 56.2° - - -
4/25 4:00am 151 4 G 7 57° 78% - - 50° 57.8° 56.4° - - -
4/25 3:50am 170 5 G 8 57° 77% - - 50° 57.8° 56.7° - - -
4/25 3:40am 173 5 G 7 57° 77% - - 50° 57.8° 56.8° - - -
4/25 3:30am 155 5 G 9 57° 77% - - 50° 57.8° 56.9° - - -
4/25 3:20am 150 4 G 8 57° 77% - - 50° 57.8° 56.9° - - -
4/25 3:10am 170 3 G 6 57° 78% - - 50° 57.8° 56.9° - - -
4/25 3:00am 187 4 G 7 57° 78% - - 50° 57.8° 56.9° - - -
4/25 2:50am 181 6 G 9 57° 78% - - 50° 57.8° 56.9° - - -
4/25 2:40am 196 5 G 8 57° 79% - - 51° 57.8° 56.9° - - -
4/25 2:30am 190 4 G 6 58° 79% - - 51° 57.8° 56.9° - - -
4/25 2:20am 189 4 G 6 58° 79% - - 51° 57.8° 56.9° - - -
4/25 2:10am 174 3 G 6 58° 80% - - 51° 57.7° 56.9° - - -
4/25 2:00am 158 3 G 5 57° 80% - - 52° 57.7° 56.9° - - -
4/25 1:50am 177 3 G 5 57° 81% - - 52° 57.6° 56.9° - - -
4/25 1:40am 169 4 G 6 57° 81% - - 52° 57.6° 56.9° - - -
4/25 1:30am 151 3 G 6 57° 81% - - 52° 57.6° 56.9° - - -
4/25 1:20am 156 5 G 8 57° 81% - - 51° 57.6° 56.9° - - -
4/25 1:10am 151 5 G 8 57° 80% - - 51° 57.6° 56.9° - - -
4/25 1:00am 153 4 G 9 57° 79% - - 51° 57.6° 57.1° - - -
4/25 12:50am 155 3 G 5 57° 79% - - 51° 57.6° 57.1° - - -
4/25 12:40am 148 3 G 6 57° 79% - - 51° 57.6° 57.1° - - -
4/25 12:30am 148 3 G 6 57° 80% - - 51° 57.6° 57.1° - - -
4/25 12:20am 156 5 G 7 57° 80% - - 51° 57.5° 57.2° - - -
4/25 12:10am 138 4 G 7 57° 80% - - 51° 57.5° 57.2° - - -
4/25 12:00am 149 4 G 7 57° 79% - - 51° 66.9° 57° - - -
4/24 11:50pm 165 4 G 8 57° 80% - - 51° 66.9° 57° - - -
4/24 11:40pm 156 6 G 9 57° 80% - - 51° 66.9° 57° - - -
4/24 11:30pm 163 6 G 10 57° 81% - - 52° 66.9° 57° - - -
4/24 11:20pm 192 5 G 7 58° 81% - - 52° 66.9° 57° - - -
4/24 11:10pm 209 3 G 6 58° 81% - - 52° 66.9° 57° - - -
4/24 11:00pm 222 3 G 5 58° 82% - - 52° 66.9° 57° - - -
4/24 10:50pm 236 2 G 5 58° 82% - - 52° 66.9° 57° - - -
4/24 10:40pm 240 3 G 6 58° 82% - - 52° 66.9° 57° - - -
4/24 10:30pm 224 3 G 5 58° 82% - - 52° 66.9° 57° - - -
4/24 10:20pm 209 4 G 6 58° 81% - - 52° 66.9° 57° - - -
4/24 10:10pm 215 4 G 7 58° 81% - - 52° 66.9° 57° - - -
4/24 10:00pm 191 4 G 7 58° 81% - - 52° 66.9° 57° - - -
4/24 9:50pm 210 4 G 6 58° 81% - - 53° 66.9° 57° - - -
4/24 9:40pm 218 3 G 6 58° 81% - - 53° 66.9° 57° - - -
4/24 9:30pm 212 3 G 6 58° 82% - - 53° 66.9° 57° - - -
4/24 9:20pm 206 3 G 5 58° 82% - - 52° 66.9° 57° - - -
4/24 9:10pm 220 2 G 4 58° 81% - - 52° 66.9° 57° - - -
4/24 9:00pm 227 2 G 5 58° 80% - - 52° 66.9° 57° - - -
4/24 8:50pm 228 3 G 5 59° 78% - - 52° 66.9° 57° - - -
4/24 8:40pm 213 3 G 5 59° 76% - - 51° 66.9° 57° - - -
4/24 8:30pm 230 3 G 5 59° 76% - - 51° 66.9° 57° - - -
4/24 8:20pm 206 4 G 7 59° 76% - - 51° 66.9° 57° - - -
4/24 8:10pm 230 4 G 7 59° 77% - - 52° 66.9° 57° - - -
4/24 8:00pm 231 4 G 8 59° 77% - - 52° 66.9° 57° - - -
4/24 7:50pm 233 5 G 7 59° 78% - - 52° 66.9° 57° - - -
4/24 7:40pm 220 5 G 8 60° 77% - - 53° 66.9° 57° - - -
4/24 7:30pm 208 6 G 9 60° 75% - - 52° 66.9° 57° - - -
4/24 7:20pm 218 4 G 7 60° 74% - - 52° 66.9° 57° - - -
4/24 7:10pm 227 5 G 7 60° 75% - - 52° 66.9° 57° - - -
4/24 7:00pm 223 5 G 9 60° 73% - - 52° 66.9° 57° - - -
4/24 6:50pm 212 5 G 8 60° 72% - - 51° 66.9° 57° - - -
4/24 6:40pm 212 5 G 9 61° 71% - - 51° 66.9° 57° - - -
4/24 6:30pm 217 6 G 9 61° 73% - - 52° 66.9° 57° - - -
4/24 6:20pm 216 6 G 9 61° 75% - - 53° 66.9° 57° - - -
4/24 6:10pm 214 7 G 12 61° 75% - - 53° 66.9° 57° - - -
4/24 6:00pm 218 6 G 11 61° 72% - - 52° 66.9° 57° - - -